createdAt,value
2018-07-05T00:00:07.150Z,99.99
2018-07-05T00:01:20.877Z,99.99
2018-07-05T00:02:35.122Z,99.99
2018-07-05T00:03:49.098Z,99.99
2018-07-05T00:05:04.369Z,99.99
2018-07-05T00:06:18.865Z,99.99
2018-07-05T00:07:33.079Z,99.99
2018-07-05T00:08:47.588Z,99.99
2018-07-05T00:10:01.568Z,99.99
2018-07-05T00:11:16.080Z,99.99
2018-07-05T00:12:30.631Z,99.99
2018-07-05T00:13:45.334Z,99.99
2018-07-05T00:14:59.286Z,99.99
2018-07-05T00:16:14.070Z,99.99
2018-07-05T00:17:28.575Z,99.99
2018-07-05T00:18:42.071Z,99.99
2018-07-05T00:19:56.251Z,99.99
2018-07-05T00:21:11.278Z,99.99
2018-07-05T00:22:25.984Z,99.99
2018-07-05T00:23:40.241Z,99.99
2018-07-05T00:24:55.220Z,99.99
2018-07-05T00:26:10.034Z,99.99
2018-07-05T00:27:24.775Z,99.99
2018-07-05T00:28:39.235Z,99.99
2018-07-05T00:29:54.535Z,99.99
2018-07-05T00:31:08.788Z,99.99
2018-07-05T00:32:22.999Z,99.99
2018-07-05T00:33:37.236Z,99.99
2018-07-05T00:34:51.932Z,99.99
2018-07-05T00:36:06.355Z,99.99
2018-07-05T00:37:20.306Z,99.99
2018-07-05T00:38:35.033Z,99.99
2018-07-05T00:39:49.777Z,99.99
2018-07-05T00:41:04.238Z,99.99
2018-07-05T00:42:19.487Z,99.99
2018-07-05T00:43:33.673Z,99.99
2018-07-05T00:44:48.446Z,99.99
2018-07-05T00:46:03.152Z,99.99
2018-07-05T00:47:17.477Z,99.99
2018-07-05T00:48:32.706Z,99.99
2018-07-05T00:49:47.156Z,99.99
2018-07-05T00:51:00.864Z,99.99
2018-07-05T00:52:15.084Z,99.99
2018-07-05T00:53:29.038Z,99.99
2018-07-05T00:54:43.749Z,99.99
2018-07-05T00:55:58.464Z,99.99
2018-07-05T00:57:13.254Z,99.99
2018-07-05T00:58:27.951Z,99.99
2018-07-05T00:59:42.192Z,99.99
2018-07-05T01:00:56.938Z,99.99
2018-07-05T01:02:11.128Z,99.99
2018-07-05T01:03:25.354Z,99.99
2018-07-05T01:04:39.863Z,99.99
2018-07-05T01:05:54.516Z,99.99
2018-07-05T01:07:09.313Z,99.99
2018-07-05T01:08:23.812Z,99.99
2018-07-05T01:09:37.759Z,99.99
2018-07-05T01:10:51.962Z,99.99
2018-07-05T01:12:06.425Z,99.99
2018-07-05T01:13:21.431Z,99.99
2018-07-05T01:14:35.613Z,99.99
2018-07-05T01:15:50.988Z,99.99
2018-07-05T01:17:05.307Z,99.99
2018-07-05T01:18:20.275Z,99.99
2018-07-05T01:19:35.536Z,99.99
2018-07-05T01:20:50.235Z,99.99
2018-07-05T01:22:04.204Z,99.99
2018-07-05T01:23:18.800Z,99.99
2018-07-05T01:24:33.439Z,99.99
2018-07-05T01:25:47.956Z,99.99
2018-07-05T01:27:02.647Z,99.99
2018-07-05T01:28:16.946Z,99.99
2018-07-05T01:29:31.137Z,99.99
2018-07-05T01:30:45.934Z,99.99
2018-07-05T01:32:00.496Z,99.99
2018-07-05T01:33:15.206Z,99.99
2018-07-05T01:34:29.669Z,99.99
2018-07-05T01:35:44.416Z,99.99
2018-07-05T01:36:59.161Z,99.99
2018-07-05T01:38:13.838Z,99.99
2018-07-05T01:39:28.311Z,99.99
2018-07-05T01:40:42.266Z,99.99
2018-07-05T01:41:56.447Z,99.99
2018-07-05T01:43:10.430Z,99.99
2018-07-05T01:44:25.366Z,99.99
2018-07-05T01:45:40.084Z,99.99
2018-07-05T01:46:54.008Z,99.99
2018-07-05T01:48:08.459Z,99.99
2018-07-05T01:49:23.473Z,99.99
2018-07-05T01:50:38.231Z,99.99
2018-07-05T01:51:53.138Z,99.99
2018-07-05T01:53:07.278Z,99.99
2018-07-05T01:54:21.484Z,99.99
2018-07-05T01:55:36.084Z,99.99
2018-07-05T01:56:51.064Z,99.99
2018-07-05T01:58:05.266Z,99.99
2018-07-05T01:59:19.879Z,99.99
2018-07-05T02:00:34.372Z,99.99
2018-07-05T02:01:49.223Z,99.99
2018-07-05T02:03:04.000Z,99.99
2018-07-05T02:04:19.160Z,99.99
2018-07-05T02:05:33.334Z,99.99
2018-07-05T02:06:48.078Z,99.99
2018-07-05T02:08:03.218Z,99.99
2018-07-05T02:09:17.875Z,99.99
2018-07-05T02:10:32.117Z,99.99
2018-07-05T02:11:46.325Z,99.99
2018-07-05T02:13:00.761Z,99.99
2018-07-05T02:14:15.248Z,99.99
2018-07-05T02:15:30.434Z,99.99
2018-07-05T02:16:44.636Z,99.99
2018-07-05T02:17:59.047Z,99.99
2018-07-05T02:19:12.987Z,99.99
2018-07-05T02:20:27.544Z,99.99
2018-07-05T02:21:42.552Z,99.99
2018-07-05T02:22:57.225Z,99.99
2018-07-05T02:24:11.956Z,99.99
2018-07-05T02:25:26.177Z,99.99
2018-07-05T02:26:41.034Z,99.99
2018-07-05T02:27:55.728Z,99.99
2018-07-05T02:29:10.601Z,99.99
2018-07-05T02:30:25.545Z,99.99
2018-07-05T02:31:39.515Z,99.99
2018-07-05T02:32:53.974Z,99.99
2018-07-05T02:34:08.534Z,99.99
2018-07-05T02:35:23.724Z,99.99
2018-07-05T02:36:37.179Z,99.99
2018-07-05T02:37:51.640Z,99.99
2018-07-05T02:39:06.129Z,99.99
2018-07-05T02:40:20.287Z,99.99
2018-07-05T02:41:35.176Z,99.99
2018-07-05T02:42:49.925Z,99.99
2018-07-05T02:44:04.142Z,99.99
2018-07-05T02:45:18.466Z,99.99
2018-07-05T02:46:33.346Z,99.99
2018-07-05T02:47:47.317Z,99.99
2018-07-05T02:49:02.044Z,99.99
2018-07-05T02:50:16.442Z,99.99
2018-07-05T02:51:30.962Z,99.99
2018-07-05T02:52:46.180Z,99.99
2018-07-05T02:54:00.386Z,99.99
2018-07-05T02:55:14.605Z,99.99
2018-07-05T02:56:29.532Z,99.99
2018-07-05T02:57:44.492Z,99.99
2018-07-05T02:58:59.249Z,99.99
2018-07-05T03:00:13.722Z,99.99
2018-07-05T03:01:28.275Z,99.99
2018-07-05T03:02:43.029Z,99.99
2018-07-05T03:03:57.477Z,99.99
2018-07-05T03:05:11.569Z,99.99
2018-07-05T03:06:25.561Z,99.99
2018-07-05T03:07:40.292Z,99.99
2018-07-05T03:08:54.639Z,99.99
2018-07-05T03:10:09.350Z,99.99
2018-07-05T03:11:23.852Z,99.99
2018-07-05T03:12:38.159Z,99.99
2018-07-05T03:13:53.100Z,99.99
2018-07-05T03:15:07.833Z,99.99
2018-07-05T03:16:22.552Z,99.99
2018-07-05T03:17:37.702Z,99.99
2018-07-05T03:18:52.701Z,99.99
2018-07-05T03:20:07.398Z,99.99
2018-07-05T03:21:22.075Z,99.99
2018-07-05T03:22:36.777Z,99.99
2018-07-05T03:23:50.838Z,99.99
2018-07-05T03:25:05.503Z,99.99
2018-07-05T03:26:19.952Z,99.99
2018-07-05T03:27:34.429Z,99.99
2018-07-05T03:28:48.626Z,99.99
2018-07-05T03:30:03.378Z,99.99
2018-07-05T03:31:17.905Z,99.99
2018-07-05T03:32:32.171Z,99.99
2018-07-05T03:33:46.677Z,99.99
2018-07-05T03:35:01.635Z,99.99
2018-07-05T03:36:22.956Z,99.99
2018-07-05T03:37:37.258Z,99.99
2018-07-05T03:38:51.729Z,99.99
2018-07-05T03:40:06.446Z,99.99
2018-07-05T03:41:20.398Z,99.99
2018-07-05T03:42:35.169Z,99.99
2018-07-05T03:43:49.879Z,99.99
2018-07-05T03:45:04.118Z,99.99
2018-07-05T03:46:19.106Z,99.99
2018-07-05T03:47:33.955Z,99.99
2018-07-05T03:48:48.623Z,99.99
2018-07-05T03:50:03.076Z,99.99
2018-07-05T03:51:17.268Z,99.99
2018-07-05T03:52:31.849Z,99.99
2018-07-05T03:53:46.353Z,99.99
2018-07-05T03:55:00.565Z,99.99
2018-07-05T03:56:15.309Z,99.99
2018-07-05T03:57:29.689Z,99.99
2018-07-05T03:58:44.410Z,99.99
2018-07-05T03:59:59.516Z,99.99
2018-07-05T04:01:14.288Z,99.99
2018-07-05T04:02:28.808Z,99.99
2018-07-05T04:03:43.975Z,99.99
2018-07-05T04:04:58.181Z,99.99
2018-07-05T04:06:12.901Z,99.99
2018-07-05T04:07:27.642Z,99.99
2018-07-05T04:08:42.388Z,99.99
2018-07-05T04:09:57.512Z,99.99
2018-07-05T04:11:11.718Z,99.99
2018-07-05T04:12:25.944Z,99.99
2018-07-05T04:13:41.360Z,98.35
2018-07-05T04:14:56.510Z,96.84
2018-07-05T04:16:10.989Z,93.22
2018-07-05T04:17:25.912Z,90.07
2018-07-05T04:18:40.688Z,87.45
2018-07-05T04:19:54.916Z,84.49
2018-07-05T04:21:09.441Z,83.56
2018-07-05T04:22:23.924Z,81.95
2018-07-05T04:23:39.092Z,80.63
2018-07-05T04:24:53.592Z,78.11
2018-07-05T04:26:08.203Z,77.86
2018-07-05T04:27:22.458Z,75.47
2018-07-05T04:28:36.921Z,74.05
2018-07-05T04:29:51.751Z,72.63
2018-07-05T04:31:06.253Z,71.01
2018-07-05T04:32:21.247Z,69.48
2018-07-05T04:33:35.717Z,68.16
2018-07-05T04:34:49.687Z,67.12
2018-07-05T04:36:03.925Z,65.88
2018-07-05T04:37:18.855Z,65.92
2018-07-05T04:38:33.795Z,65.3
2018-07-05T04:39:48.439Z,65.4
2018-07-05T04:41:02.413Z,65.33
2018-07-05T04:42:17.162Z,66.76
2018-07-05T04:43:32.116Z,65.3
2018-07-05T04:44:47.561Z,64.06
2018-07-05T04:46:02.287Z,64.65
2018-07-05T04:47:17.057Z,64.91
2018-07-05T04:48:31.008Z,64.72
2018-07-05T04:49:45.815Z,64.03
2018-07-05T04:51:00.570Z,63.18
2018-07-05T04:52:16.178Z,62.92
2018-07-05T04:53:30.628Z,61.95
2018-07-05T04:54:44.877Z,61.88
2018-07-05T04:55:59.891Z,61.04
2018-07-05T04:57:14.231Z,61.04
2018-07-05T04:58:29.298Z,61.23
2018-07-05T04:59:44.252Z,61.13
2018-07-05T05:00:59.631Z,60.47
2018-07-05T05:02:14.409Z,60.16
2018-07-05T05:03:29.549Z,59.59
2018-07-05T05:04:43.612Z,58.36
2018-07-05T05:05:58.146Z,58.58
2018-07-05T05:07:12.724Z,58.68
2018-07-05T05:08:27.535Z,58.28
2018-07-05T05:09:42.414Z,59.17
2018-07-05T05:10:57.170Z,58.84
2018-07-05T05:12:11.921Z,59.14
2018-07-05T05:13:26.431Z,59.86
2018-07-05T05:14:41.331Z,59.01
2018-07-05T05:15:55.313Z,59.79
2018-07-05T05:17:10.254Z,59.89
2018-07-05T05:18:24.992Z,59.11
2018-07-05T05:19:38.719Z,58.94
2018-07-05T05:20:53.306Z,58.55
2018-07-05T05:22:08.080Z,59.23
2018-07-05T05:23:22.353Z,58.45
2018-07-05T05:24:37.059Z,58.36
2018-07-05T05:25:51.593Z,58.28
2018-07-05T05:27:06.093Z,58.16
2018-07-05T05:28:20.923Z,59.04
2018-07-05T05:29:34.647Z,58.52
2018-07-05T05:30:49.404Z,58.16
2018-07-05T05:32:03.622Z,59.89
2018-07-05T05:33:17.856Z,58.52
2018-07-05T05:34:33.163Z,59.23
2018-07-05T05:35:48.231Z,58.72
2018-07-05T05:37:02.243Z,57.77
2018-07-05T05:38:16.726Z,58.55
2018-07-05T05:39:31.657Z,58.55
2018-07-05T05:40:46.889Z,59.33
2018-07-05T05:42:01.825Z,59.96
2018-07-05T05:43:16.326Z,60.25
2018-07-05T05:44:30.825Z,61.3
2018-07-05T05:45:45.532Z,63.38
2018-07-05T05:47:00.117Z,64.97
2018-07-05T05:48:15.028Z,66.6
2018-07-05T05:49:29.808Z,66.47
2018-07-05T05:50:44.806Z,68.02
2018-07-05T05:51:59.710Z,67.99
2018-07-05T05:53:15.026Z,68.87
2018-07-05T05:54:29.806Z,69.55
2018-07-05T05:55:44.660Z,69.32
2018-07-05T05:56:58.960Z,70.58
2018-07-05T05:58:13.470Z,71.91
2018-07-05T05:59:27.976Z,72.75
2018-07-05T06:00:42.223Z,73.78
2018-07-05T06:01:57.175Z,73.49
2018-07-05T06:03:12.234Z,73.68
2018-07-05T06:04:26.744Z,74.37
2018-07-05T06:05:41.006Z,75.04
2018-07-05T06:06:55.847Z,74.56
2018-07-05T06:08:10.742Z,74.37
2018-07-05T06:09:25.519Z,74.56
2018-07-05T06:10:39.746Z,75.24
2018-07-05T06:11:54.593Z,75.78
2018-07-05T06:13:09.584Z,77.92
2018-07-05T06:14:24.582Z,78.23
2018-07-05T06:15:39.086Z,78.91
2018-07-05T06:16:53.803Z,79.49
2018-07-05T06:18:07.829Z,79.3
2018-07-05T06:19:22.572Z,79.2
2018-07-05T06:20:37.087Z,80.55
2018-07-05T06:21:51.842Z,80.8
2018-07-05T06:23:07.186Z,81
2018-07-05T06:24:21.712Z,80.9
2018-07-05T06:25:36.549Z,80.62
2018-07-05T06:26:51.435Z,80.75
2018-07-05T06:28:05.918Z,81
2018-07-05T06:29:20.404Z,81
2018-07-05T06:30:34.954Z,81.29
2018-07-05T06:31:49.419Z,81.39
2018-07-05T06:33:04.487Z,81.29
2018-07-05T06:34:19.978Z,81.29
2018-07-05T06:35:40.311Z,81.58
2018-07-05T06:36:55.243Z,81
2018-07-05T06:38:09.756Z,81.04
2018-07-05T06:39:24.030Z,81.72
2018-07-05T06:40:39.236Z,82.35
2018-07-05T06:41:54.059Z,82.94
2018-07-05T06:43:08.946Z,82.65
2018-07-05T06:44:23.432Z,81.1
2018-07-05T06:45:37.951Z,82.59
2018-07-05T06:46:52.909Z,82.26
2018-07-05T06:48:07.716Z,81.58
2018-07-05T06:49:22.398Z,81.58
2018-07-05T06:50:37.703Z,81.29
2018-07-05T06:51:52.212Z,80.55
2018-07-05T06:53:07.573Z,80.55
2018-07-05T06:54:22.681Z,79.68
2018-07-05T06:55:37.448Z,79.49
2018-07-05T06:56:51.438Z,79.88
2018-07-05T06:58:06.224Z,79.49
2018-07-05T06:59:21.555Z,80.75
2018-07-05T07:00:36.014Z,80.94
2018-07-05T07:01:50.505Z,80.8
2018-07-05T07:03:05.234Z,80.9
2018-07-05T07:04:20.015Z,81.39
2018-07-05T07:05:34.926Z,81.48
2018-07-05T07:06:49.786Z,82.03
2018-07-05T07:08:04.298Z,82.12
2018-07-05T07:09:19.289Z,81.93
